Time;durP1;ratioP1;P1;durP2;ratioP2;P2;SDS_P1;SDS_P2;PMS_P1;PMS_P2;Temp;Humidity;BMP_temperature;BMP_pressure;BME280_temperature;BME280_humidity;BME280_pressure;Samples;Min_cycle;Max_cycle;Signal;HPM_P1;HPM_P2
2020/12/11 00:01:38;;;;;;;55.95;26.90;;;;;;;1.73;79.85;99689.27;1769533;79;21155;-35
2020/12/11 00:04:07;;;;;;;50.25;22.10;;;;;;;1.78;79.78;99683.05;1761397;80;21170;-35
2020/12/11 00:06:35;;;;;;;59.58;27.10;;;;;;;1.79;79.76;99681.17;1788119;78;21026;-35
2020/12/11 00:09:03;;;;;;;55.30;26.77;;;;;;;1.79;79.69;99680.63;1766452;79;21136;-34
2020/12/11 00:11:32;;;;;;;57.60;26.35;;;;;;;1.82;79.67;99675.23;1787569;80;21307;-35
2020/12/11 00:14:01;;;;;;;60.80;27.50;;;;;;;1.83;79.76;99677.62;1783338;78;21153;-35
2020/12/11 00:16:29;;;;;;;53.85;26.80;;;;;;;1.80;79.81;99674.71;1775075;78;20980;-35
2020/12/11 00:18:58;;;;;;;51.95;24.30;;;;;;;1.79;79.85;99679.30;1790594;78;21126;-34
2020/12/11 00:21:26;;;;;;;56.50;27.67;;;;;;;1.85;79.62;99678.09;1784597;78;21177;-35
2020/12/11 00:23:54;;;;;;;58.92;26.20;;;;;;;1.84;79.61;99684.53;1785012;78;22099;-34
2020/12/11 00:26:23;;;;;;;55.25;26.93;;;;;;;1.81;79.61;99690.47;1785661;78;21460;-34
2020/12/11 00:28:51;;;;;;;52.17;25.70;;;;;;;1.84;79.73;99690.44;1781792;78;21106;-34
2020/12/11 00:31:25;;;;;;;54.15;26.87;;;;;;;1.91;79.56;99681.48;1784416;78;21613;-35
2020/12/11 00:33:54;;;;;;;57.62;27.27;;;;;;;1.85;79.71;99674.09;1788834;78;21154;-35
2020/12/11 00:36:23;;;;;;;51.07;25.10;;;;;;;1.85;79.66;99675.42;1788785;78;21314;-34
2020/12/11 00:38:52;;;;;;;48.80;25.30;;;;;;;1.90;79.63;99661.97;1808425;78;21281;-34
2020/12/11 00:41:21;;;;;;;58.78;26.33;;;;;;;1.88;79.73;99658.81;1794858;78;21093;-35
2020/12/11 00:43:50;;;;;;;49.33;24.12;;;;;;;1.84;79.94;99652.45;1786634;78;21126;-34
2020/12/11 00:46:26;;;;;;;45.33;24.45;;;;;;;1.84;79.98;99660.47;1789351;78;21157;-34
2020/12/11 00:48:54;;;;;;;53.90;27.60;;;;;;;1.95;79.79;99663.22;1792186;78;21519;-34
2020/12/11 00:51:22;;;;;;;46.73;23.32;;;;;;;1.95;79.77;99667.23;1791666;78;21185;-34
2020/12/11 00:53:51;;;;;;;48.75;25.70;;;;;;;1.97;79.79;99665.61;1782588;78;21615;-35
2020/12/11 00:56:23;;;;;;;52.93;25.60;;;;;;;2.01;79.61;99670.06;1764049;80;21181;-34
2020/12/11 00:58:51;;;;;;;53.30;26.77;;;;;;;2.03;79.48;99665.20;1795656;78;21592;-35
2020/12/11 01:01:20;;;;;;;48.20;22.95;;;;;;;1.99;79.58;99661.53;1792534;79;21374;-35
2020/12/11 01:03:48;;;;;;;44.85;24.65;;;;;;;2.01;79.59;99656.70;1786695;79;21122;-34
2020/12/11 01:06:17;;;;;;;53.00;26.77;;;;;;;2.05;79.54;99661.70;1749847;80;21153;-35
2020/12/11 01:08:45;;;;;;;53.50;24.85;;;;;;;2.04;79.39;99658.77;1729343;81;21122;-35
2020/12/11 01:11:13;;;;;;;46.90;24.75;;;;;;;2.02;79.41;99662.30;1739095;81;21162;-35
2020/12/11 01:13:42;;;;;;;43.35;23.25;;;;;;;2.00;79.46;99650.30;1728403;81;21211;-35
2020/12/11 01:16:10;;;;;;;44.05;25.27;;;;;;;2.06;79.17;99654.47;1729103;81;21142;-35
2020/12/11 01:18:38;;;;;;;49.33;24.25;;;;;;;2.02;79.15;99651.61;1734121;81;21162;-35
2020/12/11 01:21:07;;;;;;;47.48;24.45;;;;;;;2.02;79.11;99660.97;1785576;79;21110;-34
2020/12/11 01:23:35;;;;;;;44.58;23.80;;;;;;;2.06;78.97;99654.47;1784862;79;21114;-34
2020/12/11 01:26:07;;;;;;;50.65;26.50;;;;;;;2.08;78.86;99659.76;1807009;79;21268;-35
2020/12/11 01:28:36;;;;;;;50.65;24.57;;;;;;;2.07;78.85;99659.53;1777289;79;21099;-34
2020/12/11 01:31:05;;;;;;;44.83;24.32;;;;;;;2.06;78.81;99657.94;1815194;79;21146;-35
2020/12/11 01:33:33;;;;;;;50.75;24.80;;;;;;;2.07;78.70;99656.86;1812008;79;21153;-35
2020/12/11 01:36:01;;;;;;;51.45;26.07;;;;;;;2.07;78.70;99654.19;1785841;79;21098;-35
2020/12/11 01:38:29;;;;;;;44.03;23.95;;;;;;;2.02;78.78;99650.81;1785133;79;21195;-35
2020/12/11 01:41:00;;;;;;;46.55;26.45;;;;;;;2.02;78.88;99649.47;1785127;79;20995;-35
2020/12/11 01:43:28;;;;;;;49.10;25.23;;;;;;;2.08;78.62;99653.07;1784009;80;21142;-35
2020/12/11 01:45:56;;;;;;;48.70;26.23;;;;;;;2.08;78.71;99651.73;1781024;79;21165;-35
2020/12/11 01:48:25;;;;;;;41.95;24.72;;;;;;;2.06;78.67;99644.58;1783902;80;21158;-35
2020/12/11 01:50:53;;;;;;;48.42;24.95;;;;;;;2.02;78.73;99638.23;1784860;79;21266;-35
2020/12/11 01:53:22;;;;;;;32.83;18.92;;;;;;;2.07;78.51;99638.14;1802089;79;21151;-34
2020/12/11 01:55:51;;;;;;;44.05;24.87;;;;;;;2.04;78.49;99644.06;1792602;79;21593;-34
2020/12/11 01:58:21;;;;;;;40.30;22.98;;;;;;;1.99;78.51;99625.98;1780708;80;21758;-35
2020/12/11 02:00:50;;;;;;;44.38;24.02;;;;;;;2.00;78.41;99624.36;1789060;80;21130;-35
2020/12/11 02:03:19;;;;;;;48.50;24.70;;;;;;;1.99;78.38;99630.78;1791074;80;21188;-35
2020/12/11 02:05:47;;;;;;;40.67;22.55;;;;;;;1.97;78.41;99634.86;1785846;80;21138;-35
2020/12/11 02:08:15;;;;;;;40.58;22.62;;;;;;;1.94;78.41;99634.09;1792289;80;21140;-35
2020/12/11 02:10:47;;;;;;;42.40;23.67;;;;;;;2.01;78.14;99626.48;1721090;80;21023;-35
2020/12/11 02:13:15;;;;;;;41.63;22.67;;;;;;;1.98;78.13;99636.45;1737620;82;21139;-35
2020/12/11 02:15:44;;;;;;;38.15;21.02;;;;;;;1.97;78.15;99636.20;1783518;80;21322;-35
2020/12/11 02:18:12;;;;;;;43.80;22.55;;;;;;;1.98;78.05;99637.79;1775225;80;21042;-34
2020/12/11 02:20:40;;;;;;;41.00;23.35;;;;;;;2.03;77.85;99632.34;1789759;80;21142;-35
2020/12/11 02:23:09;;;;;;;42.85;22.87;;;;;;;1.99;77.88;99640.14;1791104;80;21166;-35
2020/12/11 02:25:40;;;;;;;38.60;21.37;;;;;;;1.97;77.89;99634.86;1769856;80;21166;-34
2020/12/11 02:28:08;;;;;;;38.20;22.07;;;;;;;2.00;77.86;99640.40;1761656;80;21309;-35
2020/12/11 02:30:36;;;;;;;36.55;22.65;;;;;;;2.01;77.73;99636.64;1781774;80;21051;-35
2020/12/11 02:33:04;;;;;;;40.12;21.00;;;;;;;1.96;77.80;99628.72;1792296;80;21134;-35
2020/12/11 02:35:34;;;;;;;39.53;21.03;;;;;;;1.93;77.84;99637.34;1774295;80;21079;-35
2020/12/11 02:38:02;;;;;;;38.10;21.37;;;;;;;1.98;77.77;99640.46;1737528;82;21155;-35
2020/12/11 02:40:31;;;;;;;39.80;22.70;;;;;;;1.96;77.74;99644.76;1786763;80;21197;-34
2020/12/11 02:42:59;;;;;;;34.60;20.02;;;;;;;1.88;77.77;99640.10;1769238;79;21600;-34
2020/12/11 02:45:27;;;;;;;35.43;20.17;;;;;;;1.98;77.67;99644.47;1747132;81;21052;-34
2020/12/11 02:47:55;;;;;;;36.77;21.50;;;;;;;2.00;77.54;99644.41;1784402;80;21138;-35
2020/12/11 02:50:24;;;;;;;39.18;21.45;;;;;;;1.98;77.66;99643.13;1789684;79;21209;-35
2020/12/11 02:52:52;;;;;;;34.70;20.35;;;;;;;1.90;77.75;99648.60;1791111;80;21282;-35
2020/12/11 02:55:22;;;;;;;;;;;;;;;1.88;77.88;99644.11;1793942;80;21027;-35
2020/12/11 02:57:52;;;;;;;30.15;19.02;;;;;;;1.92;77.76;99653.13;1790832;79;20136;-36
2020/12/11 03:00:20;;;;;;;36.58;20.50;;;;;;;1.84;78.02;99648.44;1810885;79;21588;-35
2020/12/11 03:02:48;;;;;;;35.38;19.70;;;;;;;1.85;77.97;99650.56;1779633;79;21130;-35
2020/12/11 03:05:17;;;;;;;33.33;19.80;;;;;;;1.88;77.95;99655.34;1782609;79;22564;-34
2020/12/11 03:07:45;;;;;;;35.83;20.70;;;;;;;1.94;77.73;99650.13;1770669;81;20956;-35
2020/12/11 03:10:14;;;;;;;39.73;20.92;;;;;;;1.91;77.73;99651.53;1759102;80;21152;-35
2020/12/11 03:12:42;;;;;;;30.32;18.48;;;;;;;1.87;77.78;99645.73;1787029;80;22160;-35
2020/12/11 03:15:10;;;;;;;34.08;18.37;;;;;;;1.89;77.76;99639.56;1777842;80;21132;-35
2020/12/11 03:17:38;;;;;;;36.08;20.08;;;;;;;1.96;77.49;99648.77;1790741;80;21434;-35
2020/12/11 03:20:07;;;;;;;36.40;19.27;;;;;;;1.93;77.47;99646.70;1775433;80;21171;-34
2020/12/11 03:22:35;;;;;;;27.73;17.60;;;;;;;1.92;77.48;99646.44;1751525;81;21121;-34
2020/12/11 03:25:05;;;;;;;32.95;18.52;;;;;;;1.94;77.44;99648.26;1759315;80;21133;-35
2020/12/11 03:27:33;;;;;;;39.70;19.25;;;;;;;1.93;77.35;99641.34;1779900;80;21142;-35
2020/12/11 03:30:02;;;;;;;33.23;19.07;;;;;;;1.90;77.44;99639.79;1755071;81;21378;-35
2020/12/11 03:32:30;;;;;;;33.13;18.70;;;;;;;1.84;77.61;99636.41;1763353;80;21161;-35
2020/12/11 03:34:58;;;;;;;32.73;19.45;;;;;;;1.84;77.64;99644.42;1788661;80;21607;-35
2020/12/11 03:37:27;;;;;;;34.60;18.10;;;;;;;1.81;77.75;99643.69;1774882;79;21121;-35
2020/12/11 03:39:56;;;;;;;36.17;18.30;;;;;;;1.78;77.86;99640.82;1771218;79;21173;-35
2020/12/11 03:42:24;;;;;;;32.80;18.98;;;;;;;1.76;77.94;99637.09;1770716;79;21261;-35
2020/12/11 03:44:53;;;;;;;35.23;19.55;;;;;;;1.77;77.94;99626.66;1781843;79;21059;-35
2020/12/11 03:47:22;;;;;;;37.63;19.60;;;;;;;1.74;78.06;99644.63;1776320;80;21117;-35
2020/12/11 03:49:51;;;;;;;33.25;17.80;;;;;;;1.73;78.07;99643.84;1761471;80;21148;-35
2020/12/11 03:52:19;;;;;;;30.57;18.50;;;;;;;1.80;77.88;99651.45;1794998;79;21090;-34
2020/12/11 03:54:48;;;;;;;36.08;18.15;;;;;;;1.79;77.93;99640.54;1780815;80;21201;-35
2020/12/11 03:57:17;;;;;;;29.40;17.10;;;;;;;1.78;77.86;99639.48;1789544;80;21169;-35
2020/12/11 03:59:45;;;;;;;31.48;18.40;;;;;;;1.79;77.83;99645.88;1794629;79;21113;-34
2020/12/11 04:02:15;;;;;;;31.07;17.95;;;;;;;1.81;77.66;99645.57;1772502;79;21100;-34
2020/12/11 04:04:43;;;;;;;;;;;;;;;1.76;77.74;99645.11;1774758;79;21150;-34
2020/12/11 04:07:12;;;;;;;31.17;17.55;;;;;;;1.74;77.78;99643.30;1809243;78;21273;-35
2020/12/11 04:09:40;;;;;;;33.33;17.50;;;;;;;1.73;77.87;99637.70;1819678;78;21128;-35
2020/12/11 04:12:08;;;;;;;30.55;18.50;;;;;;;1.72;77.90;99638.78;1818176;78;21174;-35
2020/12/11 04:14:37;;;;;;;33.53;17.85;;;;;;;1.69;77.98;99640.14;1819714;78;21150;-34
2020/12/11 04:17:05;;;;;;;29.70;17.12;;;;;;;1.67;78.03;99636.98;1782144;78;21129;-35
2020/12/11 04:19:34;;;;;;;30.43;18.00;;;;;;;1.75;77.78;99642.19;1783796;78;21435;-34
2020/12/11 04:22:02;;;;;;;28.27;16.70;;;;;;;1.70;77.85;99643.07;1787530;78;21376;-35
2020/12/11 04:24:31;;;;;;;28.17;16.60;;;;;;;1.66;77.93;99648.76;1787999;78;21593;-35
2020/12/11 04:26:59;;;;;;;28.90;17.35;;;;;;;1.67;77.94;99652.23;1781632;80;21145;-35
2020/12/11 04:29:27;;;;;;;30.82;18.17;;;;;;;1.69;77.86;99658.08;1782686;78;21121;-35
2020/12/11 04:31:57;;;;;;;26.10;16.48;;;;;;;1.65;77.96;99653.05;1802440;78;21199;-35
2020/12/11 04:34:26;;;;;;;24.43;13.50;;;;;;;1.67;77.96;99656.23;1807647;78;21174;-34
2020/12/11 04:36:57;;;;;;;29.50;16.93;;;;;;;1.70;77.85;99653.77;1787622;80;21600;-35
2020/12/11 04:39:25;;;;;;;30.10;18.23;;;;;;;1.69;77.81;99660.75;1788524;78;21720;-35
2020/12/11 04:41:54;;;;;;;32.80;17.90;;;;;;;1.63;78.02;99659.25;1786465;78;21138;-35
2020/12/11 04:44:22;;;;;;;32.28;17.60;;;;;;;1.61;78.03;99654.72;1781887;78;21441;-34
2020/12/11 04:46:50;;;;;;;31.62;17.75;;;;;;;1.67;77.84;99658.91;1788652;78;21162;-35
2020/12/11 04:49:19;;;;;;;29.75;16.52;;;;;;;1.66;77.95;99663.99;1790627;78;22561;-35
2020/12/11 04:51:49;;;;;;;26.48;16.02;;;;;;;1.63;77.91;99660.58;1794680;78;21137;-34
2020/12/11 04:54:22;;;;;;;25.52;16.67;;;;;;;1.62;77.98;99661.12;1789997;78;21584;-35
2020/12/11 04:56:51;;;;;;;30.40;18.42;;;;;;;1.70;77.72;99659.11;1796549;78;22099;-35
2020/12/11 04:59:20;;;;;;;28.87;17.15;;;;;;;1.71;77.73;99666.58;1791713;78;21161;-35
2020/12/11 05:01:49;;;;;;;29.27;17.50;;;;;;;1.68;77.76;99669.31;1782002;79;21585;-35
2020/12/11 05:04:17;;;;;;;31.05;17.70;;;;;;;1.68;77.79;99673.86;1785069;79;21114;-35
2020/12/11 05:06:46;;;;;;;30.55;17.52;;;;;;;1.75;77.48;99673.72;1797157;79;21146;-35
2020/12/11 05:09:16;;;;;;;30.35;17.92;;;;;;;1.73;77.46;99669.77;1783984;80;21361;-35
2020/12/11 05:11:46;;;;;;;26.95;16.45;;;;;;;1.67;77.61;99670.93;1782771;79;22172;-35
2020/12/11 05:14:21;;;;;;;32.78;17.52;;;;;;;1.65;77.84;99682.45;1783143;79;21182;-35
2020/12/11 05:17:02;;;;;;;30.72;18.62;;;;;;;1.71;77.56;99671.92;1778446;80;20979;-35
2020/12/11 05:19:49;;;;;;;29.37;17.75;;;;;;;1.65;77.70;99678.44;1801872;79;21122;-35
2020/12/11 05:22:18;;;;;;;31.30;17.12;;;;;;;1.54;77.96;99673.03;1784408;79;22094;-35
2020/12/11 05:24:49;;;;;;;30.20;17.30;;;;;;;1.53;78.04;99676.78;1781315;79;21172;-35
2020/12/11 05:27:40;;;;;;;32.20;18.32;;;;;;;1.52;78.06;99685.88;1800182;79;20973;-35
2020/12/11 05:30:14;;;;;;;26.27;17.02;;;;;;;1.46;78.19;99677.68;1783127;79;21142;-35
2020/12/11 05:32:57;;;;;;;29.60;16.90;;;;;;;1.44;78.40;99682.54;1789044;79;21126;-35
2020/12/11 05:35:29;;;;;;;31.35;17.07;;;;;;;1.47;78.29;99686.75;1782957;79;21545;-35
2020/12/11 05:38:06;;;;;;;28.65;16.30;;;;;;;1.44;78.39;99687.34;1783632;79;21198;-35
2020/12/11 05:40:42;;;;;;;31.10;16.80;;;;;;;1.47;78.36;99693.42;1779487;79;21165;-35
2020/12/11 05:43:20;;;;;;;31.45;18.70;;;;;;;1.53;78.12;99688.80;1797711;79;21585;-35
2020/12/11 05:45:58;;;;;;;33.83;17.90;;;;;;;1.46;78.20;99696.37;1815356;79;21102;-35
2020/12/11 05:48:29;;;;;;;29.02;17.87;;;;;;;1.41;78.34;99685.77;1781470;79;22046;-35
2020/12/11 05:50:57;;;;;;;35.10;18.65;;;;;;;1.43;78.29;99691.62;1787226;79;21118;-35
2020/12/11 05:53:25;;;;;;;33.38;18.15;;;;;;;1.41;78.28;99701.27;1784408;79;20979;-35
2020/12/11 05:55:54;;;;;;;27.48;16.73;;;;;;;1.38;78.31;99699.72;1784491;79;21494;-35
2020/12/11 05:58:23;;;;;;;32.45;18.15;;;;;;;1.37;78.31;99698.13;1799486;79;21134;-35
2020/12/11 06:00:51;;;;;;;30.15;18.62;;;;;;;1.41;78.18;99699.92;1810070;77;22127;-35
2020/12/11 06:03:20;;;;;;;30.27;17.37;;;;;;;1.38;78.15;99699.72;1790348;79;21166;-35
2020/12/11 06:05:48;;;;;;;30.77;16.87;;;;;;;1.31;78.18;99700.08;1778399;79;21466;-35
2020/12/11 06:08:17;;;;;;;33.23;17.27;;;;;;;1.31;78.09;99705.42;1771726;79;21024;-35
2020/12/11 06:10:46;;;;;;;31.37;16.80;;;;;;;1.30;78.01;99708.66;1744233;79;21526;-35
2020/12/11 06:13:14;;;;;;;30.25;16.30;;;;;;;1.28;78.16;99705.47;1757467;79;22331;-35
2020/12/11 06:15:46;;;;;;;30.82;17.60;;;;;;;1.28;78.19;99712.69;1783062;79;21019;-35
2020/12/11 06:18:21;;;;;;;29.27;16.40;;;;;;;1.31;77.93;99711.55;1776811;80;21051;-35
2020/12/11 06:20:56;;;;;;;33.23;16.95;;;;;;;1.30;78.03;99712.66;1781775;79;21035;-36
2020/12/11 06:23:29;;;;;;;32.93;16.25;;;;;;;1.22;78.24;99707.16;1745876;81;21846;-35
2020/12/11 06:26:03;;;;;;;26.23;16.07;;;;;;;1.20;78.31;99707.47;1776267;79;21364;-35
2020/12/11 06:28:43;;;;;;;31.75;17.55;;;;;;;1.20;78.11;99704.80;1777154;79;21111;-35
2020/12/11 06:31:14;;;;;;;30.92;15.80;;;;;;;1.15;78.10;99712.08;1777049;79;21007;-35
2020/12/11 06:33:49;;;;;;;28.85;15.85;;;;;;;1.14;77.99;99709.95;1791588;79;21142;-36
2020/12/11 06:36:18;;;;;;;27.62;16.65;;;;;;;1.16;77.77;99708.33;1780359;79;21134;-35
2020/12/11 06:38:54;;;;;;;31.50;16.52;;;;;;;1.08;77.76;99709.75;1792162;79;21354;-35
2020/12/11 06:41:34;;;;;;;27.27;16.95;;;;;;;1.01;78.09;99709.34;1782432;79;21032;-35
2020/12/11 06:44:17;;;;;;;32.95;17.27;;;;;;;0.99;78.05;99711.48;1777021;80;21174;-35
2020/12/11 06:47:07;;;;;;;26.17;16.40;;;;;;;1.01;78.00;99709.34;1776807;80;21150;-35
2020/12/11 06:49:58;;;;;;;29.75;16.45;;;;;;;0.98;78.03;99716.56;1778233;79;21146;-35
2020/12/11 06:52:31;;;;;;;30.80;17.60;;;;;;;1.02;78.09;99717.58;1787443;79;21431;-35
2020/12/11 06:54:59;;;;;;;30.02;18.00;;;;;;;1.03;78.11;99717.03;1793344;79;21146;-35
2020/12/11 06:57:34;;;;;;;33.30;17.92;;;;;;;0.97;78.14;99712.30;1795696;79;21140;-35
2020/12/11 07:00:29;;;;;;;32.23;18.07;;;;;;;0.90;78.02;99701.73;1778320;79;21173;-35
2020/12/11 07:03:23;;;;;;;38.17;18.45;;;;;;;0.94;77.66;99705.41;1795265;79;21142;-35
2020/12/11 07:06:06;;;;;;;26.35;16.87;;;;;;;0.86;78.00;99704.19;1784291;79;21185;-35
2020/12/11 07:08:34;;;;;;;31.70;18.75;;;;;;;0.84;77.89;99703.14;1814562;79;21110;-35
2020/12/11 07:11:07;;;;;;;34.25;19.10;;;;;;;0.86;77.65;99695.65;1806787;79;21123;-35
2020/12/11 07:13:36;;;;;;;32.13;16.80;;;;;;;0.82;77.79;99699.18;1793229;79;21075;-35
2020/12/11 07:16:05;;;;;;;30.35;17.92;;;;;;;0.79;77.72;99699.20;1789881;79;21065;-35
2020/12/11 07:18:34;;;;;;;33.80;18.37;;;;;;;0.78;77.67;99702.14;1789529;79;21193;-35
2020/12/11 07:21:02;;;;;;;31.05;18.30;;;;;;;0.78;77.63;99688.80;1792715;79;21193;-35
2020/12/11 07:23:32;;;;;;;29.90;17.25;;;;;;;0.71;77.66;99685.17;1783879;80;21028;-35
2020/12/11 07:26:00;;;;;;;30.77;17.42;;;;;;;0.67;77.54;99687.36;1781844;80;21145;-35
2020/12/11 07:28:28;;;;;;;33.83;17.95;;;;;;;0.70;77.48;99688.91;1775729;79;21169;-35
2020/12/11 07:30:57;;;;;;;30.77;17.23;;;;;;;0.60;77.33;99689.57;1762433;80;21679;-35
2020/12/11 07:33:34;;;;;;;31.75;17.45;;;;;;;0.57;77.56;99674.14;1758688;79;20995;-35
2020/12/11 07:36:03;;;;;;;31.23;18.20;;;;;;;0.62;77.22;99685.55;1783738;80;21161;-35
2020/12/11 07:38:32;;;;;;;37.95;18.45;;;;;;;0.58;77.26;99681.08;1778593;80;21102;-35
2020/12/11 07:41:03;;;;;;;31.75;18.27;;;;;;;0.55;77.10;99678.95;1761859;79;21436;-35
2020/12/11 07:43:31;;;;;;;29.85;17.62;;;;;;;0.58;76.94;99680.51;1756654;80;22248;-35
2020/12/11 07:46:00;;;;;;;31.27;17.52;;;;;;;0.54;76.96;99684.03;1772303;80;21420;-35
2020/12/11 07:48:30;;;;;;;27.73;15.23;;;;;;;0.48;77.08;99681.98;1810773;79;21170;-35
2020/12/11 07:51:01;;;;;;;34.78;18.85;;;;;;;0.42;76.68;99683.92;1768512;79;21185;-35
2020/12/11 07:53:30;;;;;;;34.27;17.73;;;;;;;0.37;76.35;99690.64;1771837;80;21456;-35
2020/12/11 07:55:58;;;;;;;33.58;17.80;;;;;;;0.31;76.64;99693.64;1780991;80;21644;-36
2020/12/11 07:58:27;;;;;;;33.88;20.10;;;;;;;0.21;76.50;99685.75;1767403;80;21185;-36
2020/12/11 08:00:56;;;;;;;42.30;21.93;;;;;;;0.15;76.83;99688.20;1753010;81;21003;-36
2020/12/11 08:03:27;;;;;;;35.98;18.98;;;;;;;0.14;77.01;99689.30;1754183;80;20988;-36
2020/12/11 08:05:55;;;;;;;35.15;19.45;;;;;;;0.16;77.12;99689.27;1786877;79;21549;-38
2020/12/11 08:08:27;;;;;;;31.40;19.35;;;;;;;0.12;76.64;99686.11;1771792;80;21420;-39
2020/12/11 08:10:56;;;;;;;32.78;18.57;;;;;;;0.09;76.14;99680.02;1784226;80;20992;-39
2020/12/11 08:15:45;;;;;;;35.03;20.77;;;;;;;-0.07;76.86;99683.38;1824094;77;22667;-38
2020/12/11 08:18:21;;;;;;;35.58;22.17;;;;;;;-0.07;76.86;99683.38;1810426;79;21585;-38
2020/12/11 08:21:01;;;;;;;34.58;19.73;;;;;;;-0.04;77.25;99688.92;1802071;78;21539;-38
2020/12/11 08:23:38;;;;;;;29.30;17.12;;;;;;;-0.03;77.23;99683.86;1808506;78;21004;-37
2020/12/11 08:26:20;;;;;;;33.25;20.97;;;;;;;0.00;76.91;99689.18;1780574;79;21055;-38
2020/12/11 08:29:08;;;;;;;31.73;18.82;;;;;;;-0.06;76.25;99684.44;1793230;79;21554;-38
2020/12/11 08:31:42;;;;;;;34.55;18.40;;;;;;;-0.15;76.04;99684.79;1800138;78;20988;-38
2020/12/11 08:34:12;;;;;;;35.88;20.45;;;;;;;-0.17;76.13;99682.93;1798773;78;22145;-38
2020/12/11 08:36:47;;;;;;;34.40;18.87;;;;;;;-0.21;76.47;99674.45;1794508;78;21012;-37
2020/12/11 08:39:24;;;;;;;31.80;17.75;;;;;;;-0.20;76.04;99683.50;1793582;79;20991;-38
2020/12/11 08:42:12;;;;;;;31.42;17.98;;;;;;;-0.32;75.97;99682.27;1788372;78;21139;-37
2020/12/11 08:50:19;;;;;;;34.25;19.77;;;;;;;-0.32;76.82;99688.92;1810390;78;21146;-38
2020/12/11 08:52:45;;;;;;;31.65;18.87;;;;;;;-0.33;76.34;99684.12;1781733;78;21561;-37
2020/12/11 08:55:13;;;;;;;34.38;20.97;;;;;;;-0.29;76.35;99684.39;1799912;78;21158;-37
2020/12/11 08:57:42;;;;;;;34.65;22.32;;;;;;;-0.30;75.77;99694.25;1802730;78;21405;-37
2020/12/11 09:00:11;;;;;;;33.67;19.62;;;;;;;-0.29;75.83;99693.72;1792144;79;21202;-37
2020/12/11 09:02:40;;;;;;;33.85;20.05;;;;;;;-0.36;75.78;99681.23;1796809;78;21726;-38
2020/12/11 09:05:09;;;;;;;36.73;20.82;;;;;;;-0.31;75.93;99687.86;1788484;79;21156;-37
2020/12/11 09:07:41;;;;;;;37.50;21.30;;;;;;;-0.31;75.83;99685.19;1770825;80;21516;-38
2020/12/11 09:10:11;;;;;;;31.70;19.40;;;;;;;-0.34;75.76;99691.09;1748111;80;21176;-38
2020/12/11 09:12:40;;;;;;;36.80;20.57;;;;;;;-0.43;75.60;99696.20;1736686;81;21738;-37
2020/12/11 09:15:14;;;;;;;39.20;19.85;;;;;;;-0.39;75.88;99696.46;1746473;81;21187;-38
2020/12/11 09:17:42;;;;;;;35.50;20.25;;;;;;;-0.33;75.57;99689.99;1734016;82;21429;-37
2020/12/11 09:20:11;;;;;;;28.80;16.60;;;;;;;-0.61;75.20;99644.42;1786142;79;21003;-39
2020/12/11 09:22:39;;;;;;;35.13;20.15;;;;;;;-0.37;75.33;99684.97;1810102;79;21118;-39
2020/12/11 09:25:10;;;;;;;36.20;21.70;;;;;;;-0.41;75.86;99678.08;1810958;79;22092;-36
2020/12/11 09:27:41;;;;;;;38.17;22.95;;;;;;;-0.38;75.53;99675.38;1798007;78;21033;-36
2020/12/11 09:30:16;;;;;;;33.08;20.62;;;;;;;-0.36;75.36;99674.05;1783363;80;21469;-36
2020/12/11 09:35:38;;;;;;;37.48;22.40;;;;;;;-0.39;75.05;99671.16;1845171;77;23384;-34
2020/12/11 09:38:07;;;;;;;38.05;21.97;;;;;;;-0.47;75.05;99664.01;1808412;78;21000;-34
2020/12/11 09:40:56;;;;;;;30.00;18.70;;;;;;;-0.52;75.08;99668.05;1800308;79;22169;-34
2020/12/11 09:56:30;;;;;;;36.15;22.07;;;;;;;-0.54;76.02;99646.24;1736484;80;21902;-35
2020/12/11 09:59:08;;;;;;;38.67;23.83;;;;;;;-0.55;75.70;99642.52;1774237;80;21026;-34
2020/12/11 10:04:14;;;;;;;38.92;22.87;;;;;;;-0.52;75.66;99642.75;1803056;78;22714;-35
2020/12/11 10:06:42;;;;;;;;;;;;;;;-0.55;75.45;99648.64;1798808;79;21028;-35
2020/12/11 10:09:11;;;;;;;38.25;22.55;;;;;;;-0.59;75.38;99642.83;1802630;79;21383;-34
2020/12/11 10:11:40;;;;;;;41.37;24.35;;;;;;;-0.68;75.59;99654.61;1787590;79;21020;-35
2020/12/11 10:14:16;;;;;;;37.48;21.85;;;;;;;-0.64;75.86;99650.31;1788173;79;20984;-34
2020/12/11 10:16:41;;;;;;;36.03;21.25;;;;;;;-0.61;75.77;99649.75;1776244;79;21000;-34
2020/12/11 10:19:10;;;;;;;32.15;19.62;;;;;;;-0.64;75.76;99654.31;1802807;79;21036;-34
2020/12/11 10:21:40;;;;;;;35.13;20.02;;;;;;;-0.62;75.51;99653.48;1796868;79;21262;-35
2020/12/11 10:24:12;;;;;;;36.45;20.43;;;;;;;-0.55;75.52;99647.84;1792559;79;21590;-35
2020/12/11 10:26:41;;;;;;;29.35;19.90;;;;;;;-0.55;75.78;99649.17;1800984;79;21020;-34
2020/12/11 10:29:11;;;;;;;36.05;19.92;;;;;;;-0.55;75.36;99626.01;1789917;79;22277;-35
2020/12/11 10:31:42;;;;;;;30.82;19.17;;;;;;;-0.50;75.55;99629.95;1790975;79;21533;-35
2020/12/11 10:34:11;;;;;;;33.53;19.23;;;;;;;-0.45;75.16;99621.92;1766408;79;22198;-34
2020/12/11 10:36:39;;;;;;;43.15;20.90;;;;;;;-0.41;74.97;99621.35;1793450;79;21621;-34
2020/12/11 10:39:08;;;;;;;32.58;18.60;;;;;;;-0.41;74.94;99612.83;1782385;79;21170;-34
2020/12/11 10:41:41;;;;;;;30.70;18.27;;;;;;;-0.42;74.46;99613.90;1792104;79;21119;-35
2020/12/11 10:44:10;;;;;;;30.52;19.37;;;;;;;-0.85;74.33;99559.70;1784553;79;21644;-34
2020/12/11 10:46:38;;;;;;;34.25;19.62;;;;;;;-0.55;74.14;99618.55;1786019;79;21204;-34
2020/12/11 10:49:07;;;;;;;36.30;19.80;;;;;;;-0.62;73.96;99613.54;1793152;79;21094;-34
2020/12/11 10:51:36;;;;;;;34.55;19.85;;;;;;;-0.66;74.65;99634.34;1783641;77;21578;-34
2020/12/11 10:54:04;;;;;;;35.90;21.00;;;;;;;-0.68;74.76;99621.87;1806098;79;21146;-34
2020/12/11 10:56:32;;;;;;;32.50;20.82;;;;;;;-0.71;75.17;99623.73;1807284;79;21415;-35
2020/12/11 10:59:03;;;;;;;34.13;20.62;;;;;;;-0.74;74.73;99617.12;1783634;79;22102;-35
2020/12/11 11:01:31;;;;;;;37.35;20.68;;;;;;;-0.69;75.07;99607.77;1805039;79;20980;-35
2020/12/11 11:04:01;;;;;;;33.50;18.73;;;;;;;-0.73;75.37;99612.06;1777120;79;21147;-35
2020/12/11 11:06:34;;;;;;;43.58;23.05;;;;;;;-0.73;75.19;99612.06;1797295;79;21115;-35
2020/12/11 11:14:32;;;;;;;35.68;25.23;;;;;;;-0.68;75.36;99602.70;1785640;78;27788;-35
2020/12/11 11:22:19;;;;;;;36.77;24.15;;;;;;;-0.50;74.00;99611.31;1757331;80;21070;-34
2020/12/11 11:27:17;;;;;;;40.70;24.05;;;;;;;-0.75;74.34;99594.23;1756624;80;21600;-34
2020/12/11 11:29:38;;;;;;;39.13;23.12;;;;;;;-0.85;74.58;99599.63;1746210;80;21024;-34
2020/12/11 11:32:08;;;;;;;36.13;22.37;;;;;;;-0.84;74.81;99607.88;1760210;80;21401;-35
2020/12/11 11:34:41;;;;;;;36.20;21.62;;;;;;;-0.91;74.89;99612.70;1750228;80;21035;-35
2020/12/11 11:37:13;;;;;;;37.50;20.62;;;;;;;-0.98;74.61;99606.39;1762202;80;21024;-34
2020/12/11 11:39:44;;;;;;;34.25;20.82;;;;;;;-0.96;75.11;99611.41;1749250;80;21699;-34
2020/12/11 11:42:12;;;;;;;;;;;;;;;-1.03;74.99;99605.09;1756153;80;21412;-34
2020/12/11 11:47:17;;;;;;;32.63;18.87;;;;;;;-1.14;74.88;99587.61;1760818;80;21161;-34
2020/12/11 11:52:36;;;;;;;36.85;21.33;;;;;;;-1.24;75.24;99578.36;1749178;80;21147;-34
2020/12/11 11:55:05;;;;;;;36.68;20.85;;;;;;;-1.26;75.08;99590.36;1748743;80;21138;-34
2020/12/11 11:57:35;;;;;;;33.83;21.02;;;;;;;-1.27;75.29;99582.12;1767024;80;21387;-35
2020/12/11 12:00:05;;;;;;;41.68;25.05;;;;;;;-1.29;75.81;99588.23;1763249;80;21157;-34
2020/12/11 12:02:34;;;;;;;41.18;22.75;;;;;;;-1.25;75.92;99586.61;1777194;80;21043;-35
2020/12/11 12:05:04;;;;;;;42.15;24.63;;;;;;;-1.29;75.61;99587.70;1764998;80;21605;-34
2020/12/11 12:07:34;;;;;;;36.17;22.45;;;;;;;-1.34;75.86;99582.41;1755768;79;21035;-35
2020/12/11 12:10:04;;;;;;;39.80;24.23;;;;;;;-1.32;75.99;99582.41;1767926;80;21382;-35
2020/12/11 12:12:37;;;;;;;33.78;21.37;;;;;;;-1.29;75.94;99585.05;1760255;80;21999;-35
2020/12/11 12:15:02;;;;;;;;;;;;;;;-1.32;76.01;99583.75;1759895;79;21071;-34
2020/12/11 12:17:36;;;;;;;37.55;22.40;;;;;;;-1.77;75.81;99517.55;1774527;80;20221;-34
2020/12/11 12:20:07;;;;;;;39.08;23.30;;;;;;;-1.43;75.84;99590.19;1766198;80;21629;-34
2020/12/11 12:30:31;;;;;;;32.28;21.37;;;;;;;-1.54;75.77;99579.34;1787210;79;21313;-34
2020/12/11 12:35:52;;;;;;;34.55;22.02;;;;;;;-1.54;75.84;99579.87;1786477;79;21522;-35